Time;durP1;ratioP1;P1;durP2;ratioP2;P2;SDS_P1;SDS_P2;PMS_P1;PMS_P2;Temp;Humidity;BMP_temperature;BMP_pressure;BME280_temperature;BME280_humidity;BME280_pressure;Samples;Min_cycle;Max_cycle;Signal;HPM_P1;HPM_P2
2023/09/26 00:02:25;;;;;;;1.45;1.38;;;14.20;99.90;;;;;;4990674;28;20046;-86
2023/09/26 00:04:51;;;;;;;1.50;1.40;;;14.10;99.90;;;;;;4977168;28;20057;-87
2023/09/26 00:07:17;;;;;;;1.58;1.48;;;14.10;99.90;;;;;;4991085;28;20045;-86
2023/09/26 00:09:43;;;;;;;1.60;1.50;;;14.10;99.90;;;;;;4991101;28;20049;-86
2023/09/26 00:12:09;;;;;;;1.65;1.55;;;14.00;99.90;;;;;;4989648;28;20100;-85
2023/09/26 00:14:35;;;;;;;1.55;1.45;;;13.90;99.90;;;;;;4975315;28;20041;-87
2023/09/26 00:17:01;;;;;;;1.67;1.58;;;13.80;99.90;;;;;;4991715;28;20048;-86
2023/09/26 00:19:27;;;;;;;1.73;1.63;;;13.80;99.90;;;;;;4990611;28;20049;-87
2023/09/26 00:21:53;;;;;;;1.65;1.55;;;13.80;99.90;;;;;;4988497;28;20053;-87
2023/09/26 00:24:18;;;;;;;1.60;1.50;;;13.70;99.90;;;;;;4990492;28;20038;-86
2023/09/26 00:26:45;;;;;;;1.77;1.67;;;13.70;99.90;;;;;;4988404;28;20065;-86
2023/09/26 00:29:11;;;;;;;1.73;1.63;;;13.50;99.90;;;;;;4990878;28;20962;-86
2023/09/26 00:31:37;;;;;;;1.80;1.70;;;13.50;99.90;;;;;;4991383;28;20825;-86
2023/09/26 00:34:04;;;;;;;1.73;1.63;;;13.30;99.90;;;;;;4987536;28;20076;-87
2023/09/26 00:36:30;;;;;;;1.75;1.65;;;13.30;99.90;;;;;;4973657;28;20049;-87
2023/09/26 00:38:55;;;;;;;1.67;1.58;;;13.40;99.90;;;;;;4988874;28;20038;-86
2023/09/26 00:41:21;;;;;;;1.80;1.70;;;13.30;99.90;;;;;;5004195;28;20088;-86
2023/09/26 00:43:48;;;;;;;1.77;1.67;;;13.30;99.90;;;;;;4988184;28;20046;-86
2023/09/26 00:46:13;;;;;;;1.75;1.65;;;13.20;99.90;;;;;;4987437;28;20495;-86
2023/09/26 00:48:39;;;;;;;1.80;1.70;;;13.30;99.90;;;;;;4988026;28;20052;-87
2023/09/26 00:51:06;;;;;;;1.65;1.55;;;13.30;99.90;;;;;;4987741;28;20537;-86
2023/09/26 00:53:32;;;;;;;2.03;1.92;;;13.30;99.90;;;;;;4989681;28;20107;-86
2023/09/26 00:56:00;;;;;;;2.38;2.28;;;13.30;99.90;;;;;;4987602;28;20487;-86
2023/09/26 00:58:26;;;;;;;2.25;2.15;;;13.30;99.90;;;;;;4987534;28;20050;-86
2023/09/26 01:00:55;;;;;;;2.58;2.47;;;13.30;99.90;;;;;;5002513;28;20523;-85
2023/09/26 01:03:21;;;;;;;2.20;2.10;;;13.20;99.90;;;;;;4989714;28;20073;-86
2023/09/26 01:05:48;;;;;;;2.13;2.03;;;13.10;99.90;;;;;;5003585;28;20041;-86
2023/09/26 01:08:14;;;;;;;2.35;2.25;;;13.10;99.90;;;;;;4987585;28;20503;-86
2023/09/26 01:10:40;;;;;;;2.10;2.00;;;13.10;99.90;;;;;;4987933;28;20061;-86
2023/09/26 01:13:06;;;;;;;2.55;2.45;;;13.20;99.90;;;;;;4987872;28;20423;-86
2023/09/26 01:15:36;;;;;;;2.08;1.98;;;13.20;99.90;;;;;;5004817;28;20062;-85
2023/09/26 01:18:09;;;;;;;2.20;2.10;;;13.20;99.90;;;;;;4987373;28;20053;-86
2023/09/26 01:20:40;;;;;;;2.60;2.50;;;13.20;99.90;;;;;;4987572;28;20147;-86
2023/09/26 01:23:06;;;;;;;2.30;2.20;;;13.10;99.90;;;;;;4987598;28;20050;-86
2023/09/26 01:25:35;;;;;;;2.80;2.60;;;13.10;99.90;;;;;;4987552;28;20048;-86
2023/09/26 01:28:06;;;;;;;2.53;2.42;;;13.10;99.90;;;;;;4974292;28;20472;-87
2023/09/26 01:30:33;;;;;;;2.88;2.67;;;13.10;99.90;;;;;;4987779;28;20399;-86
2023/09/26 01:33:00;;;;;;;3.00;2.80;;;13.10;99.90;;;;;;4988071;28;20049;-86
2023/09/26 01:35:26;;;;;;;2.92;2.72;;;13.10;99.90;;;;;;4990471;28;20132;-86
2023/09/26 01:37:52;;;;;;;2.80;2.60;;;13.00;99.90;;;;;;4987295;28;20061;-86
2023/09/26 01:40:17;;;;;;;3.17;2.97;;;13.00;99.90;;;;;;4987648;28;20042;-87
2023/09/26 01:42:43;;;;;;;2.97;2.78;;;13.00;99.90;;;;;;4989483;28;20069;-86
2023/09/26 01:45:09;;;;;;;2.53;2.42;;;13.00;99.90;;;;;;4988717;28;20042;-86
2023/09/26 01:47:49;;;;;;;3.00;2.80;;;13.00;99.90;;;;;;4986364;28;20415;-87
2023/09/26 01:50:16;;;;;;;2.95;2.75;;;12.90;99.90;;;;;;4988411;28;20066;-86
2023/09/26 01:52:42;;;;;;;2.90;2.70;;;13.00;99.90;;;;;;4971731;28;20046;-87
2023/09/26 01:55:16;;;;;;;2.90;2.70;;;13.00;99.90;;;;;;4987799;28;20774;-87
2023/09/26 01:57:42;;;;;;;2.90;2.70;;;13.00;99.90;;;;;;4970403;28;20041;-87
2023/09/26 02:00:11;;;;;;;3.10;2.90;;;13.00;99.90;;;;;;4972172;28;20060;-86
2023/09/26 02:02:42;;;;;;;3.00;2.80;;;13.10;99.90;;;;;;4986696;28;20077;-86
2023/09/26 02:05:12;;;;;;;2.90;2.70;;;13.00;99.90;;;;;;4966892;28;20081;-86
2023/09/26 02:07:38;;;;;;;3.00;2.80;;;13.00;99.90;;;;;;4971762;28;20049;-86
2023/09/26 02:10:05;;;;;;;2.90;2.70;;;12.90;99.90;;;;;;4970699;28;20169;-86
2023/09/26 02:12:39;;;;;;;2.60;2.50;;;12.90;99.90;;;;;;4987681;28;20573;-87
2023/09/26 02:15:07;;;;;;;2.90;2.70;;;12.90;99.90;;;;;;4987880;28;20065;-86
2023/09/26 02:17:35;;;;;;;2.80;2.60;;;12.80;99.90;;;;;;4990766;28;20041;-86
2023/09/26 02:20:03;;;;;;;2.90;2.70;;;12.80;99.90;;;;;;4971274;28;20038;-86
2023/09/26 02:22:29;;;;;;;2.63;2.53;;;12.70;99.90;;;;;;4971994;28;20400;-86
2023/09/26 02:24:54;;;;;;;2.80;2.60;;;12.70;99.90;;;;;;4971516;28;20053;-87
2023/09/26 02:27:20;;;;;;;2.72;2.60;;;12.80;99.90;;;;;;4988954;28;20034;-87
2023/09/26 02:29:46;;;;;;;2.80;2.60;;;12.70;99.90;;;;;;4970382;28;20042;-85
2023/09/26 02:32:12;;;;;;;3.10;2.90;;;12.70;99.90;;;;;;4986946;28;20553;-86
2023/09/26 02:34:38;;;;;;;2.95;2.75;;;12.70;99.90;;;;;;4987781;28;20081;-87
2023/09/26 02:37:03;;;;;;;2.90;2.70;;;12.70;99.90;;;;;;4989112;28;20049;-86
2023/09/26 02:39:29;;;;;;;2.90;2.70;;;12.80;99.90;;;;;;4986454;28;20045;-86
2023/09/26 02:41:55;;;;;;;3.00;2.80;;;12.80;99.90;;;;;;4970773;28;20060;-87
2023/09/26 02:44:20;;;;;;;2.90;2.70;;;12.80;99.90;;;;;;4971089;28;20042;-86
2023/09/26 02:46:46;;;;;;;2.97;2.78;;;12.90;99.90;;;;;;4987579;28;20045;-86
2023/09/26 02:49:12;;;;;;;2.90;2.70;;;12.80;99.90;;;;;;4986713;28;20046;-86
2023/09/26 02:51:37;;;;;;;2.78;2.60;;;12.70;99.90;;;;;;4988975;28;20077;-87
2023/09/26 02:54:03;;;;;;;2.90;2.70;;;12.70;99.90;;;;;;4987940;28;20061;-86
2023/09/26 02:56:29;;;;;;;2.92;2.72;;;12.60;99.90;;;;;;4972820;28;20115;-87
2023/09/26 02:58:55;;;;;;;2.90;2.70;;;12.60;99.90;;;;;;4992146;28;20142;-87
2023/09/26 03:01:21;;;;;;;2.42;2.33;;;12.50;99.90;;;;;;4975940;28;20357;-86
2023/09/26 03:03:48;;;;;;;2.90;2.70;;;12.60;99.90;;;;;;4989734;28;20038;-86
2023/09/26 03:06:13;;;;;;;2.90;2.70;;;12.50;99.90;;;;;;4974654;28;20407;-86
2023/09/26 03:08:39;;;;;;;2.80;2.60;;;12.50;99.90;;;;;;4991124;28;20048;-89
2023/09/26 03:11:05;;;;;;;2.72;2.58;;;12.50;99.90;;;;;;4978809;28;20046;-85
2023/09/26 03:13:33;;;;;;;2.83;2.63;;;12.60;99.90;;;;;;4992798;28;20049;-86
2023/09/26 03:16:00;;;;;;;2.80;2.60;;;12.60;99.90;;;;;;4992702;28;20146;-86
2023/09/26 03:18:26;;;;;;;2.78;2.60;;;12.70;99.90;;;;;;4975889;28;20045;-86
2023/09/26 03:20:56;;;;;;;2.90;2.70;;;12.70;99.90;;;;;;4991279;28;20053;-86
2023/09/26 03:23:22;;;;;;;2.65;2.55;;;12.80;99.90;;;;;;4990147;28;20056;-86
2023/09/26 03:25:48;;;;;;;2.70;2.55;;;12.90;99.90;;;;;;4994589;28;20080;-87
2023/09/26 03:28:14;;;;;;;2.90;2.70;;;12.90;99.90;;;;;;4989506;28;20041;-86
2023/09/26 03:30:40;;;;;;;2.60;2.50;;;12.90;99.90;;;;;;4990393;28;20042;-86
2023/09/26 03:33:06;;;;;;;2.65;2.53;;;12.90;99.90;;;;;;4991758;28;20037;-86
2023/09/26 03:35:32;;;;;;;2.65;2.53;;;12.60;99.90;;;;;;4990018;28;20041;-86
2023/09/26 03:37:57;;;;;;;2.50;2.40;;;12.80;99.90;;;;;;4989161;28;20045;-87
2023/09/26 03:40:23;;;;;;;2.55;2.45;;;12.70;99.90;;;;;;4991563;28;20073;-87
2023/09/26 03:42:48;;;;;;;2.58;2.47;;;12.70;99.90;;;;;;4974024;28;20050;-87
2023/09/26 03:45:14;;;;;;;2.53;2.42;;;12.80;99.90;;;;;;4990493;28;20050;-86
2023/09/26 03:47:40;;;;;;;2.58;2.47;;;12.70;99.90;;;;;;4989846;28;20076;-87
2023/09/26 03:50:07;;;;;;;2.70;2.55;;;12.60;99.90;;;;;;4989939;28;20050;-87
2023/09/26 03:52:33;;;;;;;2.67;2.55;;;12.40;99.90;;;;;;4990264;28;20080;-86
2023/09/26 03:54:58;;;;;;;2.63;2.50;;;12.40;99.90;;;;;;4992599;28;20085;-86
2023/09/26 03:57:24;;;;;;;2.60;2.50;;;12.40;99.90;;;;;;4990447;28;20038;-86
2023/09/26 03:59:50;;;;;;;3.05;2.85;;;12.40;99.90;;;;;;4973102;28;20081;-87
2023/09/26 04:02:16;;;;;;;2.88;2.67;;;12.20;99.90;;;;;;4972671;28;20125;-86
2023/09/26 04:04:41;;;;;;;2.90;2.70;;;12.20;99.90;;;;;;4990560;28;20046;-87
2023/09/26 04:07:07;;;;;;;2.92;2.72;;;12.10;99.90;;;;;;4971842;28;20038;-86
2023/09/26 04:09:34;;;;;;;2.80;2.63;;;12.10;99.90;;;;;;4987880;28;20755;-87
2023/09/26 04:12:03;;;;;;;2.78;2.60;;;12.10;99.90;;;;;;4992717;28;20128;-86
2023/09/26 04:14:29;;;;;;;2.95;2.75;;;12.10;99.90;;;;;;4989664;28;20076;-86
2023/09/26 04:16:55;;;;;;;2.55;2.45;;;12.20;99.90;;;;;;4989672;28;20050;-86
2023/09/26 04:19:22;;;;;;;2.95;2.75;;;12.10;99.90;;;;;;4990076;28;20042;-86
2023/09/26 04:21:47;;;;;;;2.75;2.58;;;12.10;99.90;;;;;;4973465;28;20514;-87
2023/09/26 04:24:13;;;;;;;2.47;2.38;;;12.10;99.90;;;;;;4989288;28;20395;-86
2023/09/26 04:26:39;;;;;;;2.35;2.25;;;12.30;99.90;;;;;;4989203;28;20037;-86
2023/09/26 04:29:07;;;;;;;2.30;2.20;;;12.30;99.90;;;;;;4991701;28;20116;-86
2023/09/26 04:31:32;;;;;;;2.38;2.28;;;12.20;99.90;;;;;;4988209;28;20042;-86
2023/09/26 04:33:58;;;;;;;2.42;2.33;;;12.30;99.90;;;;;;4989577;28;20411;-87
2023/09/26 04:36:24;;;;;;;2.85;2.65;;;12.20;99.90;;;;;;4973262;28;20488;-86
2023/09/26 04:38:50;;;;;;;2.50;2.40;;;12.30;99.90;;;;;;4988211;28;20046;-86
2023/09/26 04:41:16;;;;;;;2.65;2.53;;;12.20;99.90;;;;;;4987601;28;20162;-87
2023/09/26 04:43:42;;;;;;;2.55;2.45;;;12.20;99.90;;;;;;4988761;28;20118;-86
2023/09/26 04:46:12;;;;;;;2.35;2.25;;;12.30;99.90;;;;;;4987599;28;20058;-86
2023/09/26 04:48:42;;;;;;;2.35;2.25;;;12.10;99.90;;;;;;4986580;28;20530;-86
2023/09/26 04:51:09;;;;;;;2.45;2.35;;;12.00;99.90;;;;;;4972670;28;20197;-86
2023/09/26 04:53:35;;;;;;;2.70;2.55;;;11.90;99.90;;;;;;4984611;28;20057;-88
2023/09/26 04:56:02;;;;;;;2.40;2.30;;;12.00;99.90;;;;;;4987066;28;20046;-86
2023/09/26 04:58:29;;;;;;;2.35;2.25;;;12.10;99.90;;;;;;4971613;28;20133;-86
2023/09/26 05:00:55;;;;;;;2.47;2.38;;;12.00;99.90;;;;;;4969788;28;20046;-86
2023/09/26 05:03:21;;;;;;;2.28;2.17;;;12.20;99.90;;;;;;4988936;28;20159;-86
2023/09/26 05:05:46;;;;;;;2.22;2.13;;;12.10;99.90;;;;;;4987018;28;20507;-87
2023/09/26 05:08:12;;;;;;;2.38;2.28;;;12.10;99.90;;;;;;4968581;28;20052;-85
2023/09/26 05:10:38;;;;;;;2.35;2.25;;;12.10;99.90;;;;;;4984847;28;20102;-86
2023/09/26 05:13:05;;;;;;;2.83;2.65;;;12.10;99.90;;;;;;4984996;28;20460;-86
2023/09/26 05:15:34;;;;;;;2.45;2.35;;;11.90;99.90;;;;;;4984999;28;20693;-86
2023/09/26 05:18:00;;;;;;;2.70;2.55;;;12.10;99.90;;;;;;4984872;28;20050;-86
2023/09/26 05:20:26;;;;;;;2.10;2.00;;;12.20;99.90;;;;;;4983970;28;20122;-85
2023/09/26 05:22:51;;;;;;;2.00;1.90;;;12.20;99.90;;;;;;4987433;28;20128;-86
2023/09/26 05:25:20;;;;;;;2.25;2.15;;;12.20;99.90;;;;;;4987953;28;20046;-85
2023/09/26 05:27:46;;;;;;;2.33;2.22;;;12.30;99.90;;;;;;4988092;28;20046;-86
2023/09/26 05:30:13;;;;;;;2.33;2.22;;;12.30;99.90;;;;;;4988701;28;20419;-87
2023/09/26 05:32:40;;;;;;;2.38;2.28;;;12.20;99.90;;;;;;5004010;28;20045;-86
2023/09/26 05:35:07;;;;;;;2.42;2.33;;;12.20;99.90;;;;;;4986800;28;20105;-85
2023/09/26 05:37:33;;;;;;;2.45;2.35;;;12.30;99.90;;;;;;4989808;28;20113;-87
2023/09/26 05:40:00;;;;;;;2.50;2.40;;;12.40;99.90;;;;;;4989254;28;20129;-86
2023/09/26 05:42:25;;;;;;;2.40;2.30;;;12.50;99.90;;;;;;4986451;28;20049;-87
2023/09/26 05:44:51;;;;;;;2.55;2.45;;;12.60;99.90;;;;;;4971376;28;20079;-87
2023/09/26 05:47:17;;;;;;;2.40;2.30;;;12.50;99.90;;;;;;4971056;28;20041;-88
2023/09/26 05:49:42;;;;;;;2.28;2.17;;;12.70;99.90;;;;;;4968985;28;20046;-87
2023/09/26 05:52:08;;;;;;;2.35;2.25;;;12.70;99.90;;;;;;4969597;28;20037;-86
2023/09/26 05:54:34;;;;;;;2.38;2.28;;;12.80;99.90;;;;;;4969477;28;20057;-85
2023/09/26 05:57:03;;;;;;;2.40;2.30;;;12.90;99.90;;;;;;4986044;28;20100;-85
2023/09/26 05:59:29;;;;;;;2.53;2.42;;;12.80;99.90;;;;;;4966672;28;20048;-90
2023/09/26 06:01:54;;;;;;;2.33;2.22;;;12.90;99.90;;;;;;4988677;28;20053;-85
2023/09/26 06:04:20;;;;;;;2.30;2.20;;;12.90;99.90;;;;;;4970636;28;20506;-87
2023/09/26 06:06:45;;;;;;;2.10;2.00;;;13.00;99.90;;;;;;4981305;28;20049;-85
2023/09/26 06:09:11;;;;;;;2.17;2.08;;;12.90;99.90;;;;;;4997176;28;20480;-86
2023/09/26 06:11:37;;;;;;;2.00;1.90;;;13.00;99.90;;;;;;4987168;28;20514;-88
2023/09/26 06:14:02;;;;;;;2.13;2.03;;;13.10;99.90;;;;;;4991112;28;20048;-90
2023/09/26 06:16:28;;;;;;;2.15;2.05;;;13.30;99.90;;;;;;4985729;28;20108;-86
2023/09/26 06:18:55;;;;;;;2.10;2.00;;;13.40;99.90;;;;;;4986853;28;20128;-85
2023/09/26 06:21:21;;;;;;;2.28;2.17;;;13.40;99.90;;;;;;4985442;28;20421;-87
2023/09/26 06:23:48;;;;;;;1.98;1.88;;;13.40;99.90;;;;;;4970222;28;20045;-87
2023/09/26 06:26:14;;;;;;;2.13;2.03;;;13.30;99.90;;;;;;4983888;28;20128;-85
2023/09/26 06:28:40;;;;;;;2.25;2.15;;;13.40;99.90;;;;;;5001189;28;20045;-82
2023/09/26 06:31:10;;;;;;;2.20;2.10;;;13.40;99.90;;;;;;4984042;28;20478;-87
2023/09/26 06:33:36;;;;;;;2.25;2.15;;;13.40;99.90;;;;;;4985167;28;20581;-88
2023/09/26 06:36:11;;;;;;;2.30;2.20;;;13.40;99.90;;;;;;4987129;28;20058;-86
2023/09/26 06:38:37;;;;;;;2.33;2.22;;;13.40;99.90;;;;;;4985685;28;20707;-81
2023/09/26 06:41:05;;;;;;;2.20;2.10;;;13.60;99.90;;;;;;5004398;28;20050;-81
2023/09/26 06:43:30;;;;;;;2.00;1.90;;;13.60;99.90;;;;;;4987800;28;20088;-85
2023/09/26 06:45:56;;;;;;;2.13;2.03;;;13.60;99.90;;;;;;4988483;28;20184;-93
2023/09/26 06:48:22;;;;;;;2.17;2.08;;;13.60;99.90;;;;;;4975756;28;20096;-89
2023/09/26 06:50:48;;;;;;;2.05;1.95;;;13.50;99.90;;;;;;4970822;28;20057;-87
2023/09/26 06:53:13;;;;;;;2.05;1.95;;;13.60;99.90;;;;;;4973726;28;20054;-88
2023/09/26 06:55:39;;;;;;;1.95;1.85;;;13.60;99.90;;;;;;4989312;28;20088;-90
2023/09/26 06:58:06;;;;;;;2.15;2.05;;;13.60;99.90;;;;;;4972634;28;20079;-87
2023/09/26 07:00:32;;;;;;;2.08;1.98;;;13.60;99.90;;;;;;4988763;28;20038;-91
2023/09/26 07:02:58;;;;;;;2.00;1.90;;;13.60;99.90;;;;;;4970342;28;20045;-81
2023/09/26 07:05:26;;;;;;;1.92;1.83;;;13.70;99.90;;;;;;4987985;28;20042;-89
2023/09/26 07:07:52;;;;;;;1.85;1.75;;;13.70;99.90;;;;;;4971339;28;20169;-90
2023/09/26 07:10:24;;;;;;;2.00;1.90;;;13.90;99.90;;;;;;5003778;28;20436;-87
2023/09/26 07:12:51;;;;;;;1.98;1.88;;;13.90;99.90;;;;;;4988856;28;20052;-85
2023/09/26 07:15:18;;;;;;;2.00;1.90;;;14.00;99.90;;;;;;4987417;28;20085;-88
2023/09/26 07:17:47;;;;;;;1.70;1.60;;;14.10;99.90;;;;;;4993992;28;20130;-86
2023/09/26 07:20:15;;;;;;;1.90;1.80;;;14.00;99.90;;;;;;4987498;28;20058;-85
2023/09/26 07:22:41;;;;;;;1.75;1.65;;;14.10;99.90;;;;;;5004259;28;20092;-88
2023/09/26 07:25:08;;;;;;;1.70;1.60;;;14.20;99.90;;;;;;4971482;28;20049;-90
2023/09/26 07:27:40;;;;;;;1.60;1.50;;;14.30;99.90;;;;;;4972199;28;20038;-87
2023/09/26 07:30:09;;;;;;;1.80;1.70;;;14.30;99.90;;;;;;4986959;28;20061;-86
2023/09/26 07:32:34;;;;;;;1.60;1.50;;;14.50;99.90;;;;;;4987873;28;20053;-85
2023/09/26 07:35:03;;;;;;;1.90;1.80;;;14.50;99.90;;;;;;4973791;28;20049;-89
2023/09/26 07:37:30;;;;;;;1.67;1.58;;;14.50;99.90;;;;;;4972898;28;20050;-86
2023/09/26 07:39:56;;;;;;;1.67;1.58;;;14.60;99.90;;;;;;4988753;28;20037;-87
2023/09/26 07:42:22;;;;;;;1.80;1.70;;;14.60;99.90;;;;;;4972231;28;20052;-88
2023/09/26 07:44:47;;;;;;;1.80;1.70;;;14.80;99.90;;;;;;4992453;28;20044;-85
2023/09/26 07:47:13;;;;;;;1.83;1.73;;;14.70;99.90;;;;;;4991071;28;20116;-82
2023/09/26 07:49:40;;;;;;;1.70;1.60;;;15.00;99.90;;;;;;4990997;28;20140;-82
2023/09/26 07:52:06;;;;;;;1.83;1.73;;;15.00;99.90;;;;;;4991781;28;20061;-86
2023/09/26 07:54:32;;;;;;;1.70;1.60;;;15.10;99.90;;;;;;4991699;28;20129;-86
2023/09/26 07:56:58;;;;;;;1.60;1.50;;;15.20;99.90;;;;;;4975901;28;20128;-86
2023/09/26 07:59:24;;;;;;;1.70;1.60;;;15.30;99.90;;;;;;4991690;28;20509;-84
2023/09/26 08:01:49;;;;;;;1.77;1.67;;;15.50;99.90;;;;;;4990671;28;20513;-86
2023/09/26 08:04:15;;;;;;;1.77;1.67;;;15.50;99.90;;;;;;4988293;28;20144;-87
2023/09/26 08:06:45;;;;;;;1.88;1.77;;;15.80;99.90;;;;;;4989018;28;20539;-87
2023/09/26 08:09:10;;;;;;;1.88;1.77;;;15.80;99.90;;;;;;4983830;28;20128;-85
2023/09/26 08:11:38;;;;;;;2.08;1.98;;;16.00;99.90;;;;;;4988675;28;20117;-86
2023/09/26 08:14:04;;;;;;;1.95;1.85;;;16.10;99.90;;;;;;4951462;28;20116;-86
2023/09/26 08:16:30;;;;;;;1.95;1.85;;;16.40;99.90;;;;;;4982738;28;20050;-87
2023/09/26 08:19:05;;;;;;;2.15;2.05;;;16.70;99.90;;;;;;4975596;28;20080;-86
2023/09/26 08:21:31;;;;;;;2.13;2.03;;;16.70;99.90;;;;;;4992186;28;20085;-82
2023/09/26 08:23:57;;;;;;;2.30;2.20;;;16.50;99.90;;;;;;4993216;28;20076;-86
2023/09/26 08:26:32;;;;;;;2.20;2.10;;;16.60;99.90;;;;;;4993334;28;20380;-96
2023/09/26 08:29:00;;;;;;;2.33;2.22;;;16.70;99.90;;;;;;4993603;28;20050;-86
2023/09/26 08:31:33;;;;;;;2.40;2.30;;;16.90;99.90;;;;;;4974932;28;20124;-86
2023/09/26 08:34:02;;;;;;;2.78;2.58;;;16.80;99.90;;;;;;4976214;28;20046;-86
2023/09/26 08:36:28;;;;;;;2.60;2.50;;;16.80;99.90;;;;;;4990712;28;20085;-87
2023/09/26 08:38:55;;;;;;;2.38;2.28;;;16.70;99.90;;;;;;4990676;28;20112;-87
2023/09/26 08:41:20;;;;;;;2.55;2.45;;;17.00;99.90;;;;;;4990880;28;20053;-87
2023/09/26 08:43:47;;;;;;;2.55;2.45;;;17.00;99.90;;;;;;4974004;28;20038;-88
2023/09/26 08:46:12;;;;;;;2.70;2.55;;;16.90;99.90;;;;;;4984993;28;20081;-87
2023/09/26 08:48:42;;;;;;;2.50;2.40;;;17.10;99.90;;;;;;4989098;28;20899;-88
2023/09/26 08:51:08;;;;;;;2.60;2.50;;;17.10;99.90;;;;;;4988303;28;20084;-87
2023/09/26 08:53:33;;;;;;;2.60;2.50;;;17.20;99.90;;;;;;4978925;28;20475;-87
2023/09/26 08:55:59;;;;;;;2.40;2.30;;;17.40;99.90;;;;;;4970688;28;20053;-89
2023/09/26 08:58:26;;;;;;;2.40;2.30;;;17.50;99.90;;;;;;5035933;23;20056;-86
2023/09/26 09:00:51;;;;;;;2.35;2.25;;;17.50;99.90;;;;;;4973142;28;20499;-87
2023/09/26 09:03:17;;;;;;;2.05;1.95;;;17.90;99.90;;;;;;4988636;28;20053;-85
2023/09/26 09:05:44;;;;;;;2.50;2.40;;;18.00;99.90;;;;;;4988732;28;20038;-86
2023/09/26 09:08:20;;;;;;;2.35;2.25;;;17.70;99.90;;;;;;4987864;28;20503;-87
2023/09/26 09:10:51;;;;;;;2.38;2.28;;;17.90;99.90;;;;;;4988123;28;20062;-86
2023/09/26 09:13:28;;;;;;;2.20;2.10;;;18.20;99.90;;;;;;4987853;28;20073;-90
2023/09/26 09:16:13;;;;;;;2.30;2.20;;;18.30;99.90;;;;;;4986520;28;20388;-87
2023/09/26 09:18:46;;;;;;;2.50;2.40;;;18.30;99.90;;;;;;4987775;28;20037;-88
2023/09/26 09:21:30;;;;;;;2.40;2.30;;;18.30;99.90;;;;;;5004668;28;20534;-88
2023/09/26 09:23:58;;;;;;;2.53;2.43;;;18.30;99.90;;;;;;4984812;28;20058;-88
2023/09/26 09:26:27;;;;;;;2.40;2.30;;;18.10;99.90;;;;;;4987485;28;20303;-87
2023/09/26 09:28:55;;;;;;;2.08;1.98;;;18.20;99.90;;;;;;4989225;28;20045;-85
2023/09/26 09:31:21;;;;;;;2.45;2.35;;;18.30;99.90;;;;;;5005015;28;20180;-86
2023/09/26 09:33:49;;;;;;;1.98;1.88;;;18.60;99.90;;;;;;4990660;28;20547;-89
2023/09/26 09:36:18;;;;;;;2.05;1.95;;;18.50;99.90;;;;;;4986316;28;20050;-88
2023/09/26 09:38:43;;;;;;;2.05;1.95;;;18.60;99.90;;;;;;4986571;28;20129;-93
2023/09/26 09:41:09;;;;;;;1.92;1.83;;;18.80;99.90;;;;;;4989592;28;20124;-83
2023/09/26 09:43:36;;;;;;;2.03;1.92;;;18.80;99.90;;;;;;5003097;28;20133;-85
2023/09/26 09:46:07;;;;;;;2.13;2.03;;;19.20;99.90;;;;;;4983477;28;20041;-90
2023/09/26 09:48:42;;;;;;;2.00;1.90;;;19.10;99.90;;;;;;4988050;28;20088;-86
2023/09/26 09:51:11;;;;;;;2.20;2.10;;;18.80;99.90;;;;;;4990154;28;20057;-89
2023/09/26 09:53:40;;;;;;;2.03;1.92;;;18.90;99.90;;;;;;4989499;28;20068;-89
2023/09/26 09:56:07;;;;;;;1.90;1.80;;;18.80;99.90;;;;;;4989101;28;20093;-86
2023/09/26 09:58:38;;;;;;;1.85;1.75;;;19.00;99.90;;;;;;4984103;28;20041;-88
2023/09/26 10:01:05;;;;;;;2.15;2.05;;;19.40;99.90;;;;;;4983802;28;20081;-87
2023/09/26 10:03:30;;;;;;;2.05;1.95;;;19.20;99.90;;;;;;4981439;28;20041;-90
2023/09/26 10:05:57;;;;;;;1.95;1.85;;;19.40;99.90;;;;;;4973481;28;20073;-88
2023/09/26 10:08:24;;;;;;;2.15;2.05;;;19.20;99.90;;;;;;4969813;28;20053;-89
2023/09/26 10:10:51;;;;;;;1.80;1.70;;;19.10;99.90;;;;;;4973831;28;20509;-92
2023/09/26 10:13:20;;;;;;;2.08;1.98;;;19.00;99.90;;;;;;4974837;28;20052;-96
2023/09/26 10:16:22;;;;;;;2.05;1.95;;;19.10;99.90;;;;;;4991432;28;20263;-89
2023/09/26 10:18:51;;;;;;;2.15;2.05;;;19.30;99.90;;;;;;4889094;29;20092;-89
2023/09/26 10:21:25;;;;;;;2.03;1.92;;;19.20;99.90;;;;;;4975740;28;20053;-86
2023/09/26 10:24:21;;;;;;;2.17;2.08;;;19.20;99.90;;;;;;4986209;28;20117;-87
2023/09/26 10:26:48;;;;;;;1.98;1.88;;;19.90;99.90;;;;;;4986163;28;20042;-85
2023/09/26 10:29:31;;;;;;;2.08;1.98;;;19.90;99.90;;;;;;4976308;28;20050;-92
2023/09/26 10:32:04;;;;;;;1.40;1.35;;;20.30;99.90;;;;;;5261751;23;20063;-91
2023/09/26 10:34:36;;;;;;;1.67;1.58;;;20.70;99.90;;;;;;4963042;28;20050;-91
2023/09/26 10:37:25;;;;;;;2.30;2.20;;;20.70;99.90;;;;;;5273707;23;20703;-96
2023/09/26 10:39:51;;;;;;;1.90;1.80;;;20.30;99.90;;;;;;4984760;28;20069;-87
2023/09/26 10:42:21;;;;;;;1.90;1.80;;;20.50;99.90;;;;;;4990400;28;20049;-88
2023/09/26 10:44:51;;;;;;;1.83;1.73;;;20.30;99.90;;;;;;4993787;28;20047;-89
2023/09/26 10:47:23;;;;;;;1.80;1.70;;;20.50;99.90;;;;;;4993733;28;20484;-90
2023/09/26 10:49:49;;;;;;;1.75;1.65;;;20.80;99.90;;;;;;4985294;28;20141;-87
2023/09/26 10:52:16;;;;;;;2.00;1.90;;;21.30;99.90;;;;;;5003808;28;20129;-82
2023/09/26 10:54:42;;;;;;;1.70;1.60;;;21.00;99.90;;;;;;4993022;28;20498;-87
2023/09/26 10:57:18;;;;;;;1.35;1.33;;;21.30;99.90;;;;;;4987925;28;20057;-85
2023/09/26 10:59:44;;;;;;;1.63;1.52;;;21.10;99.90;;;;;;4975279;28;20074;-89
2023/09/26 11:02:10;;;;;;;1.60;1.50;;;21.30;99.90;;;;;;4981696;28;20045;-93
2023/09/26 11:04:35;;;;;;;1.58;1.48;;;21.70;99.90;;;;;;4997821;28;20084;-89
2023/09/26 11:07:02;;;;;;;1.48;1.40;;;21.90;99.90;;;;;;4987776;28;20513;-84
2023/09/26 11:09:29;;;;;;;1.48;1.40;;;22.00;99.90;;;;;;5005577;28;20045;-82
2023/09/26 11:11:56;;;;;;;1.75;1.65;;;21.70;99.90;;;;;;4993144;28;20125;-92
2023/09/26 11:14:26;;;;;;;1.63;1.52;;;21.60;99.90;;;;;;4987643;28;20504;-90
2023/09/26 11:16:52;;;;;;;1.33;1.33;;;21.90;99.90;;;;;;4965005;28;20046;-87
2023/09/26 11:19:21;;;;;;;1.13;1.13;;;22.30;99.90;;;;;;4980923;28;20046;-86
2023/09/26 11:21:48;;;;;;;1.20;1.20;;;21.90;99.90;;;;;;4990409;28;20105;-89
2023/09/26 11:24:30;;;;;;;1.20;1.20;;;22.40;99.90;;;;;;4979761;28;20100;-92
2023/09/26 11:27:04;;;;;;;1.20;1.20;;;22.50;99.90;;;;;;4985398;28;20042;-86
2023/09/26 11:29:31;;;;;;;1.10;1.10;;;22.70;99.90;;;;;;4969776;28;20050;-85
2023/09/26 11:32:23;;;;;;;1.17;1.17;;;22.70;99.90;;;;;;4986599;28;20057;-96
2023/09/26 11:34:49;;;;;;;1.55;1.45;;;22.90;99.90;;;;;;4977819;28;20046;-94
2023/09/26 11:37:15;;;;;;;1.40;1.35;;;22.60;99.90;;;;;;4980354;28;20042;-95
2023/09/26 11:40:15;;;;;;;1.52;1.42;;;22.50;99.90;;;;;;4979386;28;20041;-94
2023/09/26 11:42:55;;;;;;;1.58;1.48;;;22.40;99.90;;;;;;4974526;28;20128;-95
2023/09/26 11:45:39;;;;;;;1.75;1.65;;;22.80;99.90;;;;;;4974195;28;20130;-91
2023/09/26 11:48:07;;;;;;;1.58;1.48;;;23.00;99.90;;;;;;4987926;28;20134;-90
2023/09/26 11:50:36;;;;;;;1.33;1.30;;;22.80;99.90;;;;;;4969862;28;20450;-85
2023/09/26 11:53:04;;;;;;;1.55;1.45;;;23.00;99.90;;;;;;4968923;28;20488;-95
2023/09/26 11:55:35;;;;;;;1.40;1.35;;;23.00;99.90;;;;;;4973304;28;20607;-91
2023/09/26 11:58:01;;;;;;;1.42;1.38;;;23.10;99.90;;;;;;4970619;28;20061;-89
2023/09/26 12:00:38;;;;;;;1.15;1.15;;;23.20;99.90;;;;;;4969409;28;20073;-96
2023/09/26 12:03:10;;;;;;;1.73;1.63;;;23.20;99.90;;;;;;4977696;28;20042;-92
2023/09/26 12:05:36;;;;;;;1.55;1.48;;;23.00;99.90;;;;;;4973646;28;20492;-88
2023/09/26 12:08:05;;;;;;;1.48;1.40;;;23.20;99.90;;;;;;4990619;28;20050;-94
2023/09/26 12:10:31;;;;;;;0.30;0.30;;;23.30;99.90;;;;;;4978348;28;20065;-85
2023/09/26 12:12:57;;;;;;;1.42;1.38;;;23.30;99.90;;;;;;4969246;28;20069;-86
2023/09/26 12:15:25;;;;;;;1.35;1.33;;;23.40;99.90;;;;;;4969845;28;20042;-85
2023/09/26 12:17:52;;;;;;;1.15;1.15;;;23.40;99.90;;;;;;4987158;28;20045;-93
2023/09/26 12:20:25;;;;;;;1.08;1.08;;;23.50;99.90;;;;;;4990934;28;20042;-92
2023/09/26 12:22:55;;;;;;;0.30;0.30;;;23.60;99.90;;;;;;4965318;28;20046;-94
2023/09/26 12:25:22;;;;;;;1.20;1.20;;;23.80;99.90;;;;;;4964989;28;20056;-91
2023/09/26 12:27:53;;;;;;;0.30;0.30;;;23.90;99.90;;;;;;4974064;28;20050;-91
2023/09/26 12:30:48;;;;;;;0.98;0.98;;;24.10;99.90;;;;;;4991370;28;20046;-95
2023/09/26 12:33:16;;;;;;;0.38;0.38;;;24.20;99.90;;;;;;4980253;28;20060;-95
2023/09/26 12:35:46;;;;;;;0.30;0.30;;;23.90;99.90;;;;;;4972847;28;20054;-94
2023/09/26 12:38:12;;;;;;;1.00;1.00;;;23.90;99.90;;;;;;4982740;28;20034;-89
2023/09/26 12:40:38;;;;;;;0.30;0.30;;;23.70;99.90;;;;;;4991223;28;20464;-90
2023/09/26 12:43:07;;;;;;;0.90;0.90;;;23.70;99.90;;;;;;4975280;28;20051;-91
2023/09/26 12:45:51;;;;;;;0.30;0.30;;;23.50;99.90;;;;;;4971591;28;20077;-94
2023/09/26 12:48:24;;;;;;;0.90;0.90;;;23.50;99.90;;;;;;4969942;28;20481;-95
2023/09/26 12:50:58;;;;;;;0.85;0.85;;;23.40;99.90;;;;;;4973224;28;20058;-93
2023/09/26 12:53:24;;;;;;;0.40;0.40;;;23.60;99.90;;;;;;4966757;28;20099;-88